sensor_id;sensor_type;location;lat;lon;timestamp;temperature;humidity
15409;DHT22;7803;48.130;13.788;2024-01-07T00:44:42;23.90;70.50
15409;DHT22;7803;48.130;13.788;2024-01-07T00:47:45;23.90;70.50
15409;DHT22;7803;48.130;13.788;2024-01-07T00:50:47;23.90;70.50
15409;DHT22;7803;48.130;13.788;2024-01-07T00:53:49;23.90;70.40
15409;DHT22;7803;48.130;13.788;2024-01-07T00:56:51;23.90;70.40
15409;DHT22;7803;48.130;13.788;2024-01-07T00:59:54;23.80;70.30
15409;DHT22;7803;48.130;13.788;2024-01-07T01:02:56;23.80;70.30
15409;DHT22;7803;48.130;13.788;2024-01-07T01:05:59;23.80;70.30
15409;DHT22;7803;48.130;13.788;2024-01-07T01:09:01;23.80;70.30
15409;DHT22;7803;48.130;13.788;2024-01-07T01:12:07;23.80;70.30
15409;DHT22;7803;48.130;13.788;2024-01-07T01:15:11;23.90;70.30
15409;DHT22;7803;48.130;13.788;2024-01-07T01:18:13;23.80;70.30
15409;DHT22;7803;48.130;13.788;2024-01-07T01:21:15;23.80;70.30
15409;DHT22;7803;48.130;13.788;2024-01-07T01:24:18;23.80;70.20
15409;DHT22;7803;48.130;13.788;2024-01-07T01:27:20;23.80;70.30
15409;DHT22;7803;48.130;13.788;2024-01-07T01:30:24;23.80;70.30
15409;DHT22;7803;48.130;13.788;2024-01-07T01:33:28;23.80;70.20
15409;DHT22;7803;48.130;13.788;2024-01-07T01:36:31;23.80;70.20
15409;DHT22;7803;48.130;13.788;2024-01-07T01:39:33;23.80;70.30
15409;DHT22;7803;48.130;13.788;2024-01-07T01:42:35;23.80;70.30
15409;DHT22;7803;48.130;13.788;2024-01-07T01:45:40;23.70;70.50
15409;DHT22;7803;48.130;13.788;2024-01-07T01:48:43;23.70;71.50
15409;DHT22;7803;48.130;13.788;2024-01-07T01:51:46;23.70;71.90
15409;DHT22;7803;48.130;13.788;2024-01-07T01:54:48;23.70;71.40
15409;DHT22;7803;48.130;13.788;2024-01-07T01:57:50;23.70;71.20
15409;DHT22;7803;48.130;13.788;2024-01-07T02:00:58;23.70;74.70
15409;DHT22;7803;48.130;13.788;2024-01-07T02:04:00;23.70;74.20
15409;DHT22;7803;48.130;13.788;2024-01-07T02:07:02;23.80;73.10
15409;DHT22;7803;48.130;13.788;2024-01-07T02:10:05;23.80;72.90
15409;DHT22;7803;48.130;13.788;2024-01-07T02:13:08;23.70;73.20
15409;DHT22;7803;48.130;13.788;2024-01-07T02:16:12;23.70;74.40
15409;DHT22;7803;48.130;13.788;2024-01-07T02:19:18;23.80;75.70
15409;DHT22;7803;48.130;13.788;2024-01-07T02:22:20;23.90;75.20
15409;DHT22;7803;48.130;13.788;2024-01-07T02:25:24;23.90;74.00
15409;DHT22;7803;48.130;13.788;2024-01-07T02:28:26;24.00;74.00
15409;DHT22;7803;48.130;13.788;2024-01-07T02:31:28;24.10;73.30
15409;DHT22;7803;48.130;13.788;2024-01-07T02:34:30;24.10;72.30
15409;DHT22;7803;48.130;13.788;2024-01-07T02:37:46;24.10;72.10
15409;DHT22;7803;48.130;13.788;2024-01-07T02:41:07;24.10;73.00
15409;DHT22;7803;48.130;13.788;2024-01-07T02:44:09;24.00;72.00
15409;DHT22;7803;48.130;13.788;2024-01-07T02:47:25;24.00;72.10
15409;DHT22;7803;48.130;13.788;2024-01-07T02:50:27;23.90;72.50
15409;DHT22;7803;48.130;13.788;2024-01-07T02:53:29;23.90;73.30
15409;DHT22;7803;48.130;13.788;2024-01-07T02:56:33;23.90;74.10
15409;DHT22;7803;48.130;13.788;2024-01-07T02:59:35;23.80;74.00
15409;DHT22;7803;48.130;13.788;2024-01-07T03:02:37;23.80;75.60
15409;DHT22;7803;48.130;13.788;2024-01-07T03:05:39;23.80;75.00
15409;DHT22;7803;48.130;13.788;2024-01-07T03:08:42;23.70;74.50
15409;DHT22;7803;48.130;13.788;2024-01-07T03:11:45;23.70;74.20
15409;DHT22;7803;48.130;13.788;2024-01-07T03:14:48;23.70;74.00
15409;DHT22;7803;48.130;13.788;2024-01-07T03:17:51;23.70;72.30
15409;DHT22;7803;48.130;13.788;2024-01-07T03:20:53;23.70;70.40
15409;DHT22;7803;48.130;13.788;2024-01-07T03:23:55;23.60;70.60
15409;DHT22;7803;48.130;13.788;2024-01-07T03:26:58;23.70;70.80
15409;DHT22;7803;48.130;13.788;2024-01-07T03:30:00;23.60;71.00
15409;DHT22;7803;48.130;13.788;2024-01-07T03:33:03;23.60;71.00
15409;DHT22;7803;48.130;13.788;2024-01-07T03:36:09;23.60;71.00
15409;DHT22;7803;48.130;13.788;2024-01-07T03:39:12;23.60;70.90
15409;DHT22;7803;48.130;13.788;2024-01-07T03:42:15;23.60;71.00
15409;DHT22;7803;48.130;13.788;2024-01-07T03:45:17;23.60;70.90
15409;DHT22;7803;48.130;13.788;2024-01-07T03:48:20;23.60;70.80
15409;DHT22;7803;48.130;13.788;2024-01-07T03:51:22;23.50;70.80
15409;DHT22;7803;48.130;13.788;2024-01-07T03:54:24;23.50;70.80
15409;DHT22;7803;48.130;13.788;2024-01-07T03:57:28;23.50;70.80
15409;DHT22;7803;48.130;13.788;2024-01-07T04:00:30;23.50;70.90
15409;DHT22;7803;48.130;13.788;2024-01-07T04:03:32;23.50;70.80
15409;DHT22;7803;48.130;13.788;2024-01-07T04:06:35;23.40;70.80
15409;DHT22;7803;48.130;13.788;2024-01-07T04:09:38;23.40;70.80
15409;DHT22;7803;48.130;13.788;2024-01-07T04:12:41;23.40;70.70
15409;DHT22;7803;48.130;13.788;2024-01-07T04:15:43;23.40;70.70
15409;DHT22;7803;48.130;13.788;2024-01-07T04:18:46;23.40;70.60
15409;DHT22;7803;48.130;13.788;2024-01-07T04:21:48;23.40;70.80
15409;DHT22;7803;48.130;13.788;2024-01-07T04:24:50;23.40;70.80
15409;DHT22;7803;48.130;13.788;2024-01-07T04:27:53;23.40;70.80
15409;DHT22;7803;48.130;13.788;2024-01-07T04:30:55;23.40;70.80
15409;DHT22;7803;48.130;13.788;2024-01-07T04:33:57;23.40;70.90
15409;DHT22;7803;48.130;13.788;2024-01-07T04:37:00;23.40;71.00
15409;DHT22;7803;48.130;13.788;2024-01-07T04:40:02;23.40;71.00
15409;DHT22;7803;48.130;13.788;2024-01-07T04:43:06;23.40;71.00
15409;DHT22;7803;48.130;13.788;2024-01-07T04:46:08;23.40;71.00
15409;DHT22;7803;48.130;13.788;2024-01-07T04:49:11;23.40;71.00
15409;DHT22;7803;48.130;13.788;2024-01-07T04:52:14;23.40;71.10
15409;DHT22;7803;48.130;13.788;2024-01-07T04:55:16;23.40;71.10
15409;DHT22;7803;48.130;13.788;2024-01-07T04:58:19;23.40;71.20
15409;DHT22;7803;48.130;13.788;2024-01-07T05:01:22;23.40;71.30
15409;DHT22;7803;48.130;13.788;2024-01-07T05:04:24;23.30;71.30
15409;DHT22;7803;48.130;13.788;2024-01-07T05:07:26;23.40;71.30
15409;DHT22;7803;48.130;13.788;2024-01-07T05:10:28;23.40;71.30
15409;DHT22;7803;48.130;13.788;2024-01-07T05:13:32;23.30;71.30
15409;DHT22;7803;48.130;13.788;2024-01-07T05:16:34;23.40;71.30
15409;DHT22;7803;48.130;13.788;2024-01-07T05:19:36;23.40;71.20
15409;DHT22;7803;48.130;13.788;2024-01-07T05:22:38;23.40;71.10
15409;DHT22;7803;48.130;13.788;2024-01-07T05:25:42;23.40;71.30
15409;DHT22;7803;48.130;13.788;2024-01-07T05:28:46;23.40;71.30
15409;DHT22;7803;48.130;13.788;2024-01-07T05:31:48;23.40;71.30
15409;DHT22;7803;48.130;13.788;2024-01-07T05:34:50;23.40;71.30
15409;DHT22;7803;48.130;13.788;2024-01-07T05:37:52;23.40;71.30
15409;DHT22;7803;48.130;13.788;2024-01-07T05:40:54;23.40;71.20
15409;DHT22;7803;48.130;13.788;2024-01-07T05:43:58;23.40;71.20
15409;DHT22;7803;48.130;13.788;2024-01-07T05:47:00;23.40;71.00
15409;DHT22;7803;48.130;13.788;2024-01-07T05:50:02;23.40;70.90
15409;DHT22;7803;48.130;13.788;2024-01-07T05:53:05;23.40;70.90
15409;DHT22;7803;48.130;13.788;2024-01-07T05:56:07;23.40;70.90
15409;DHT22;7803;48.130;13.788;2024-01-07T05:59:11;23.40;71.80
15409;DHT22;7803;48.130;13.788;2024-01-07T06:02:13;23.50;70.90
15409;DHT22;7803;48.130;13.788;2024-01-07T06:05:16;23.50;71.70
15409;DHT22;7803;48.130;13.788;2024-01-07T06:08:18;23.50;70.70
15409;DHT22;7803;48.130;13.788;2024-01-07T06:11:20;23.50;71.60
15409;DHT22;7803;48.130;13.788;2024-01-07T06:14:24;23.50;70.70
15409;DHT22;7803;48.130;13.788;2024-01-07T06:17:26;23.50;70.60
15409;DHT22;7803;48.130;13.788;2024-01-07T06:20:28;23.50;70.60
15409;DHT22;7803;48.130;13.788;2024-01-07T06:23:32;23.50;70.60
15409;DHT22;7803;48.130;13.788;2024-01-07T06:26:35;23.50;70.70
15409;DHT22;7803;48.130;13.788;2024-01-07T06:29:39;23.50;71.80
15409;DHT22;7803;48.130;13.788;2024-01-07T06:32:43;23.50;71.00
15409;DHT22;7803;48.130;13.788;2024-01-07T06:35:45;23.40;71.00
15409;DHT22;7803;48.130;13.788;2024-01-07T06:38:47;23.50;72.00
15409;DHT22;7803;48.130;13.788;2024-01-07T06:41:49;23.40;71.00
15409;DHT22;7803;48.130;13.788;2024-01-07T06:44:52;23.40;71.00
15409;DHT22;7803;48.130;13.788;2024-01-07T06:47:55;23.50;71.00
15409;DHT22;7803;48.130;13.788;2024-01-07T06:50:57;23.50;70.80
15409;DHT22;7803;48.130;13.788;2024-01-07T06:54:00;23.50;70.60
15409;DHT22;7803;48.130;13.788;2024-01-07T06:57:02;23.50;70.60
15409;DHT22;7803;48.130;13.788;2024-01-07T07:00:08;23.50;70.60
15409;DHT22;7803;48.130;13.788;2024-01-07T07:03:10;23.50;70.60
15409;DHT22;7803;48.130;13.788;2024-01-07T07:06:12;23.50;70.60
15409;DHT22;7803;48.130;13.788;2024-01-07T07:09:15;23.50;70.60
15409;DHT22;7803;48.130;13.788;2024-01-07T07:12:17;23.50;70.70
15409;DHT22;7803;48.130;13.788;2024-01-07T07:15:21;23.50;70.60
15409;DHT22;7803;48.130;13.788;2024-01-07T07:18:23;23.50;70.70
15409;DHT22;7803;48.130;13.788;2024-01-07T07:21:25;23.50;70.70
15409;DHT22;7803;48.130;13.788;2024-01-07T07:24:28;23.50;70.70
15409;DHT22;7803;48.130;13.788;2024-01-07T07:27:30;23.50;70.70
15409;DHT22;7803;48.130;13.788;2024-01-07T07:30:34;23.50;70.60
15409;DHT22;7803;48.130;13.788;2024-01-07T07:33:37;23.50;70.70
15409;DHT22;7803;48.130;13.788;2024-01-07T07:36:40;23.50;70.70
15409;DHT22;7803;48.130;13.788;2024-01-07T07:39:43;23.50;70.70
15409;DHT22;7803;48.130;13.788;2024-01-07T07:42:45;23.50;70.80
15409;DHT22;7803;48.130;13.788;2024-01-07T07:45:49;23.50;70.90
15409;DHT22;7803;48.130;13.788;2024-01-07T07:48:51;23.50;70.90
15409;DHT22;7803;48.130;13.788;2024-01-07T07:51:53;23.50;70.90
15409;DHT22;7803;48.130;13.788;2024-01-07T07:54:55;23.50;70.90
15409;DHT22;7803;48.130;13.788;2024-01-07T07:57:57;23.50;70.80
15409;DHT22;7803;48.130;13.788;2024-01-07T08:01:01;23.60;70.70
15409;DHT22;7803;48.130;13.788;2024-01-07T08:04:03;23.50;70.60
15409;DHT22;7803;48.130;13.788;2024-01-07T08:07:06;23.50;70.60
15409;DHT22;7803;48.130;13.788;2024-01-07T08:10:08;23.50;70.60
15409;DHT22;7803;48.130;13.788;2024-01-07T08:13:11;23.60;70.70
15409;DHT22;7803;48.130;13.788;2024-01-07T08:16:14;23.50;70.70
15409;DHT22;7803;48.130;13.788;2024-01-07T08:19:17;23.50;70.80
15409;DHT22;7803;48.130;13.788;2024-01-07T08:22:19;23.50;70.70
15409;DHT22;7803;48.130;13.788;2024-01-07T08:25:21;23.50;70.70
15409;DHT22;7803;48.130;13.788;2024-01-07T08:28:24;23.60;70.80
15409;DHT22;7803;48.130;13.788;2024-01-07T08:31:28;23.50;70.80
15409;DHT22;7803;48.130;13.788;2024-01-07T08:34:30;23.50;71.60
15409;DHT22;7803;48.130;13.788;2024-01-07T08:37:32;23.50;70.80
15409;DHT22;7803;48.130;13.788;2024-01-07T08:40:34;23.50;70.80
15409;DHT22;7803;48.130;13.788;2024-01-07T08:43:36;23.50;70.80
15409;DHT22;7803;48.130;13.788;2024-01-07T08:46:40;23.50;70.90
15409;DHT22;7803;48.130;13.788;2024-01-07T08:49:42;23.50;70.90
15409;DHT22;7803;48.130;13.788;2024-01-07T08:52:44;23.50;71.80
15409;DHT22;7803;48.130;13.788;2024-01-07T08:55:47;23.50;71.00
15409;DHT22;7803;48.130;13.788;2024-01-07T08:58:48;23.50;71.00
15409;DHT22;7803;48.130;13.788;2024-01-07T09:01:52;23.50;70.90
15409;DHT22;7803;48.130;13.788;2024-01-07T09:04:54;23.50;70.80
15409;DHT22;7803;48.130;13.788;2024-01-07T09:07:58;23.60;70.80
15409;DHT22;7803;48.130;13.788;2024-01-07T09:11:03;23.60;70.80
15409;DHT22;7803;48.130;13.788;2024-01-07T09:14:06;23.50;70.80
15409;DHT22;7803;48.130;13.788;2024-01-07T09:17:11;23.60;70.90
15409;DHT22;7803;48.130;13.788;2024-01-07T09:20:13;23.50;70.80
15409;DHT22;7803;48.130;13.788;2024-01-07T09:23:16;23.50;70.80
15409;DHT22;7803;48.130;13.788;2024-01-07T09:26:18;23.60;70.90
15409;DHT22;7803;48.130;13.788;2024-01-07T09:29:21;23.60;71.00
15409;DHT22;7803;48.130;13.788;2024-01-07T09:32:24;23.50;70.90
15409;DHT22;7803;48.130;13.788;2024-01-07T09:35:27;23.50;70.90
15409;DHT22;7803;48.130;13.788;2024-01-07T09:38:29;23.50;70.90
15409;DHT22;7803;48.130;13.788;2024-01-07T09:41:31;23.60;71.00
15409;DHT22;7803;48.130;13.788;2024-01-07T09:44:33;23.50;70.90
15409;DHT22;7803;48.130;13.788;2024-01-07T09:47:37;23.60;71.00
15409;DHT22;7803;48.130;13.788;2024-01-07T09:50:41;23.50;70.90
15409;DHT22;7803;48.130;13.788;2024-01-07T09:53:44;23.50;71.00
15409;DHT22;7803;48.130;13.788;2024-01-07T09:56:51;23.60;71.00
15409;DHT22;7803;48.130;13.788;2024-01-07T09:59:57;23.60;71.00
15409;DHT22;7803;48.130;13.788;2024-01-07T10:03:00;23.60;71.00
15409;DHT22;7803;48.130;13.788;2024-01-07T10:06:04;23.60;71.00
15409;DHT22;7803;48.130;13.788;2024-01-07T10:09:06;23.60;70.90
15409;DHT22;7803;48.130;13.788;2024-01-07T10:12:08;23.60;70.80
15409;DHT22;7803;48.130;13.788;2024-01-07T10:15:10;23.60;70.80
15409;DHT22;7803;48.130;13.788;2024-01-07T10:18:14;23.60;70.80
15409;DHT22;7803;48.130;13.788;2024-01-07T10:21:16;23.60;70.80
15409;DHT22;7803;48.130;13.788;2024-01-07T10:24:18;23.60;70.80
15409;DHT22;7803;48.130;13.788;2024-01-07T10:27:22;23.50;70.80
15409;DHT22;7803;48.130;13.788;2024-01-07T10:30:25;23.60;70.80
15409;DHT22;7803;48.130;13.788;2024-01-07T10:33:32;23.60;70.80
15409;DHT22;7803;48.130;13.788;2024-01-07T10:36:34;23.60;70.60
15409;DHT22;7803;48.130;13.788;2024-01-07T10:39:37;23.60;70.50
15409;DHT22;7803;48.130;13.788;2024-01-07T10:42:40;23.60;70.30
15409;DHT22;7803;48.130;13.788;2024-01-07T10:45:47;23.60;70.20
15409;DHT22;7803;48.130;13.788;2024-01-07T10:48:55;23.50;70.00
15409;DHT22;7803;48.130;13.788;2024-01-07T10:52:03;23.60;69.90
15409;DHT22;7803;48.130;13.788;2024-01-07T10:55:09;23.60;69.80
15409;DHT22;7803;48.130;13.788;2024-01-07T10:58:12;23.60;69.70
15409;DHT22;7803;48.130;13.788;2024-01-07T11:01:14;23.60;69.70
15409;DHT22;7803;48.130;13.788;2024-01-07T11:04:23;23.60;69.80
15409;DHT22;7803;48.130;13.788;2024-01-07T11:07:35;23.60;69.80
15409;DHT22;7803;48.130;13.788;2024-01-07T11:10:45;23.60;69.90
15409;DHT22;7803;48.130;13.788;2024-01-07T11:13:49;23.60;69.80
15409;DHT22;7803;48.130;13.788;2024-01-07T11:16:52;23.60;69.70
15409;DHT22;7803;48.130;13.788;2024-01-07T11:19:57;23.60;69.70
15409;DHT22;7803;48.130;13.788;2024-01-07T11:23:25;23.60;69.60
15409;DHT22;7803;48.130;13.788;2024-01-07T11:26:28;23.60;69.70
15409;DHT22;7803;48.130;13.788;2024-01-07T11:29:31;23.60;69.80
15409;DHT22;7803;48.130;13.788;2024-01-07T11:32:34;23.60;69.80
15409;DHT22;7803;48.130;13.788;2024-01-07T11:35:56;23.60;69.80
15409;DHT22;7803;48.130;13.788;2024-01-07T11:39:00;23.60;69.80
15409;DHT22;7803;48.130;13.788;2024-01-07T11:42:04;23.60;69.80
15409;DHT22;7803;48.130;13.788;2024-01-07T11:45:07;23.60;69.90
15409;DHT22;7803;48.130;13.788;2024-01-07T11:48:11;23.60;69.90
15409;DHT22;7803;48.130;13.788;2024-01-07T11:51:14;23.60;69.90
15409;DHT22;7803;48.130;13.788;2024-01-07T11:54:17;23.60;69.90
15409;DHT22;7803;48.130;13.788;2024-01-07T11:57:19;23.60;69.90
15409;DHT22;7803;48.130;13.788;2024-01-07T12:00:22;23.60;70.10
15409;DHT22;7803;48.130;13.788;2024-01-07T12:03:24;23.60;70.00
15409;DHT22;7803;48.130;13.788;2024-01-07T12:06:28;23.60;70.10
15409;DHT22;7803;48.130;13.788;2024-01-07T12:09:31;23.60;70.10
15409;DHT22;7803;48.130;13.788;2024-01-07T12:12:33;23.60;70.10
15409;DHT22;7803;48.130;13.788;2024-01-07T12:15:35;23.60;70.20
15409;DHT22;7803;48.130;13.788;2024-01-07T12:18:38;23.60;70.30
15409;DHT22;7803;48.130;13.788;2024-01-07T12:21:41;23.60;70.10
15409;DHT22;7803;48.130;13.788;2024-01-07T12:24:44;23.60;70.10
15409;DHT22;7803;48.130;13.788;2024-01-07T12:27:46;23.60;70.10
15409;DHT22;7803;48.130;13.788;2024-01-07T12:30:54;23.60;70.10
15409;DHT22;7803;48.130;13.788;2024-01-07T12:33:56;23.60;70.10
15409;DHT22;7803;48.130;13.788;2024-01-07T12:37:00;23.60;70.10
15409;DHT22;7803;48.130;13.788;2024-01-07T12:40:03;23.60;70.20
15409;DHT22;7803;48.130;13.788;2024-01-07T12:43:09;23.60;70.10
15409;DHT22;7803;48.130;13.788;2024-01-07T12:46:11;23.60;70.10
15409;DHT22;7803;48.130;13.788;2024-01-07T12:49:13;23.60;70.10
15409;DHT22;7803;48.130;13.788;2024-01-07T12:52:17;23.60;70.10
15409;DHT22;7803;48.130;13.788;2024-01-07T12:55:19;23.60;70.10
15409;DHT22;7803;48.130;13.788;2024-01-07T12:58:21;23.60;70.10
15409;DHT22;7803;48.130;13.788;2024-01-07T13:01:24;23.60;70.20
15409;DHT22;7803;48.130;13.788;2024-01-07T13:04:26;23.60;70.20
15409;DHT22;7803;48.130;13.788;2024-01-07T13:07:30;23.60;70.30
15409;DHT22;7803;48.130;13.788;2024-01-07T13:10:32;23.60;70.30
15409;DHT22;7803;48.130;13.788;2024-01-07T13:13:34;23.60;70.30
15409;DHT22;7803;48.130;13.788;2024-01-07T13:16:36;23.60;70.30
15409;DHT22;7803;48.130;13.788;2024-01-07T13:19:38;23.60;70.30
15409;DHT22;7803;48.130;13.788;2024-01-07T13:22:42;23.60;70.30
15409;DHT22;7803;48.130;13.788;2024-01-07T13:25:45;23.60;70.30
15409;DHT22;7803;48.130;13.788;2024-01-07T13:28:47;23.60;70.20
15409;DHT22;7803;48.130;13.788;2024-01-07T13:31:49;23.60;70.20
15409;DHT22;7803;48.130;13.788;2024-01-07T13:34:52;23.60;70.20
15409;DHT22;7803;48.130;13.788;2024-01-07T13:37:57;23.60;70.20
15409;DHT22;7803;48.130;13.788;2024-01-07T13:40:59;23.60;70.30
15409;DHT22;7803;48.130;13.788;2024-01-07T13:44:01;23.60;70.20
15409;DHT22;7803;48.130;13.788;2024-01-07T13:47:04;23.60;70.30
15409;DHT22;7803;48.130;13.788;2024-01-07T13:50:07;23.60;70.30
15409;DHT22;7803;48.130;13.788;2024-01-07T13:53:13;23.60;70.20
15409;DHT22;7803;48.130;13.788;2024-01-07T13:56:15;23.60;70.20
15409;DHT22;7803;48.130;13.788;2024-01-07T13:59:17;23.60;70.20
15409;DHT22;7803;48.130;13.788;2024-01-07T14:02:19;23.60;70.20
15409;DHT22;7803;48.130;13.788;2024-01-07T14:05:23;23.60;70.20
15409;DHT22;7803;48.130;13.788;2024-01-07T14:08:27;23.60;70.30
15409;DHT22;7803;48.130;13.788;2024-01-07T14:11:29;23.70;70.30
15409;DHT22;7803;48.130;13.788;2024-01-07T14:14:31;23.60;70.30
15409;DHT22;7803;48.130;13.788;2024-01-07T14:17:34;23.60;70.30
15409;DHT22;7803;48.130;13.788;2024-01-07T14:20:36;23.60;70.30
15409;DHT22;7803;48.130;13.788;2024-01-07T14:23:40;23.60;70.30
15409;DHT22;7803;48.130;13.788;2024-01-07T14:26:41;23.60;70.40
15409;DHT22;7803;48.130;13.788;2024-01-07T14:29:44;23.60;70.30
15409;DHT22;7803;48.130;13.788;2024-01-07T14:32:46;23.60;70.20
15409;DHT22;7803;48.130;13.788;2024-01-07T14:35:49;23.60;70.20
15409;DHT22;7803;48.130;13.788;2024-01-07T14:38:52;23.60;70.10
15409;DHT22;7803;48.130;13.788;2024-01-07T14:41:55;23.60;70.10
15409;DHT22;7803;48.130;13.788;2024-01-07T14:44:58;23.60;70.10
15409;DHT22;7803;48.130;13.788;2024-01-07T14:48:00;23.60;70.10
15409;DHT22;7803;48.130;13.788;2024-01-07T14:51:02;23.60;70.10
15409;DHT22;7803;48.130;13.788;2024-01-07T14:54:08;23.60;70.10
15409;DHT22;7803;48.130;13.788;2024-01-07T14:57:10;23.60;70.20
15409;DHT22;7803;48.130;13.788;2024-01-07T15:00:13;23.60;70.20
15409;DHT22;7803;48.130;13.788;2024-01-07T15:03:16;23.60;70.10
15409;DHT22;7803;48.130;13.788;2024-01-07T15:06:20;23.60;70.10
15409;DHT22;7803;48.130;13.788;2024-01-07T15:09:26;23.60;70.10
15409;DHT22;7803;48.130;13.788;2024-01-07T15:12:28;23.60;70.10
15409;DHT22;7803;48.130;13.788;2024-01-07T15:15:36;23.60;70.10
15409;DHT22;7803;48.130;13.788;2024-01-07T15:18:38;23.60;70.10
15409;DHT22;7803;48.130;13.788;2024-01-07T15:21:40;23.60;70.10
15409;DHT22;7803;48.130;13.788;2024-01-07T15:24:44;23.60;70.20
15409;DHT22;7803;48.130;13.788;2024-01-07T15:27:46;23.60;70.30
15409;DHT22;7803;48.130;13.788;2024-01-07T15:30:48;23.70;70.40
15409;DHT22;7803;48.130;13.788;2024-01-07T15:33:50;23.60;70.30
15409;DHT22;7803;48.130;13.788;2024-01-07T15:36:52;23.60;70.10
15409;DHT22;7803;48.130;13.788;2024-01-07T15:39:56;23.60;70.10
15409;DHT22;7803;48.130;13.788;2024-01-07T15:42:59;23.70;70.10
15409;DHT22;7803;48.130;13.788;2024-01-07T15:46:01;23.70;70.00
15409;DHT22;7803;48.130;13.788;2024-01-07T15:49:08;23.60;70.00
15409;DHT22;7803;48.130;13.788;2024-01-07T15:52:11;23.60;70.60
15409;DHT22;7803;48.130;13.788;2024-01-07T15:55:16;23.70;70.30
15409;DHT22;7803;48.130;13.788;2024-01-07T15:58:18;23.60;70.10
15409;DHT22;7803;48.130;13.788;2024-01-07T16:01:20;23.60;70.10
15409;DHT22;7803;48.130;13.788;2024-01-07T16:04:22;23.70;70.10
15409;DHT22;7803;48.130;13.788;2024-01-07T16:07:25;23.60;70.10
15409;DHT22;7803;48.130;13.788;2024-01-07T16:10:28;23.70;70.30
15409;DHT22;7803;48.130;13.788;2024-01-07T16:13:31;23.70;70.30
15409;DHT22;7803;48.130;13.788;2024-01-07T16:16:33;23.70;70.40
15409;DHT22;7803;48.130;13.788;2024-01-07T16:19:38;23.70;70.60
15409;DHT22;7803;48.130;13.788;2024-01-07T16:22:40;23.70;71.00
15409;DHT22;7803;48.130;13.788;2024-01-07T16:25:44;23.70;71.30
15409;DHT22;7803;48.130;13.788;2024-01-07T16:28:46;23.70;71.30
15409;DHT22;7803;48.130;13.788;2024-01-07T16:31:51;23.70;71.50
15409;DHT22;7803;48.130;13.788;2024-01-07T16:34:55;23.70;71.50
15409;DHT22;7803;48.130;13.788;2024-01-07T17:34:57;23.70;70.90
15409;DHT22;7803;48.130;13.788;2024-01-07T17:37:59;23.60;71.20
15409;DHT22;7803;48.130;13.788;2024-01-07T17:41:01;23.60;71.30
15409;DHT22;7803;48.130;13.788;2024-01-07T17:44:04;23.60;71.40
15409;DHT22;7803;48.130;13.788;2024-01-07T17:47:06;23.60;71.10
15409;DHT22;7803;48.130;13.788;2024-01-07T17:50:10;23.70;71.10
15409;DHT22;7803;48.130;13.788;2024-01-07T17:53:13;23.70;70.90
15409;DHT22;7803;48.130;13.788;2024-01-07T17:56:19;23.60;70.80
15409;DHT22;7803;48.130;13.788;2024-01-07T17:59:21;23.60;70.80
15409;DHT22;7803;48.130;13.788;2024-01-07T18:02:23;23.70;70.80
15409;DHT22;7803;48.130;13.788;2024-01-07T18:05:27;23.70;71.00
15409;DHT22;7803;48.130;13.788;2024-01-07T18:08:30;23.70;71.50
15409;DHT22;7803;48.130;13.788;2024-01-07T18:11:33;23.70;71.00
15409;DHT22;7803;48.130;13.788;2024-01-07T18:14:36;23.70;70.90
15409;DHT22;7803;48.130;13.788;2024-01-07T18:17:39;23.70;70.80
15409;DHT22;7803;48.130;13.788;2024-01-07T18:20:44;23.60;70.70
15409;DHT22;7803;48.130;13.788;2024-01-07T18:23:47;23.70;70.80
15409;DHT22;7803;48.130;13.788;2024-01-07T18:26:49;23.70;70.80
15409;DHT22;7803;48.130;13.788;2024-01-07T18:29:56;23.70;70.80
15409;DHT22;7803;48.130;13.788;2024-01-07T18:33:00;23.70;70.80
15409;DHT22;7803;48.130;13.788;2024-01-07T18:36:08;23.70;70.70
15409;DHT22;7803;48.130;13.788;2024-01-07T18:39:11;23.70;70.70
15409;DHT22;7803;48.130;13.788;2024-01-07T18:42:14;23.70;70.80
15409;DHT22;7803;48.130;13.788;2024-01-07T18:45:16;23.60;70.70
15409;DHT22;7803;48.130;13.788;2024-01-07T18:48:18;23.60;70.70
15409;DHT22;7803;48.130;13.788;2024-01-07T18:51:23;23.70;70.80
15409;DHT22;7803;48.130;13.788;2024-01-07T18:54:25;23.60;70.70
15409;DHT22;7803;48.130;13.788;2024-01-07T18:57:28;23.70;70.70
15409;DHT22;7803;48.130;13.788;2024-01-07T19:00:30;23.70;70.60
15409;DHT22;7803;48.130;13.788;2024-01-07T19:03:33;23.70;70.50
15409;DHT22;7803;48.130;13.788;2024-01-07T19:06:38;23.70;70.40
15409;DHT22;7803;48.130;13.788;2024-01-07T19:09:40;23.70;70.30
15409;DHT22;7803;48.130;13.788;2024-01-07T19:12:42;23.70;70.30
15409;DHT22;7803;48.130;13.788;2024-01-07T19:15:44;23.70;70.30
15409;DHT22;7803;48.130;13.788;2024-01-07T19:18:46;23.70;70.30
15409;DHT22;7803;48.130;13.788;2024-01-07T19:21:50;23.70;70.30
15409;DHT22;7803;48.130;13.788;2024-01-07T19:24:54;23.70;70.30
15409;DHT22;7803;48.130;13.788;2024-01-07T19:27:56;23.70;70.30
15409;DHT22;7803;48.130;13.788;2024-01-07T19:30:58;23.70;70.30
15409;DHT22;7803;48.130;13.788;2024-01-07T19:34:01;23.70;70.20
15409;DHT22;7803;48.130;13.788;2024-01-07T19:37:06;23.70;70.20
15409;DHT22;7803;48.130;13.788;2024-01-07T19:40:08;23.70;70.20
15409;DHT22;7803;48.130;13.788;2024-01-07T19:43:10;23.70;70.10
15409;DHT22;7803;48.130;13.788;2024-01-07T19:46:14;23.70;70.20
15409;DHT22;7803;48.130;13.788;2024-01-07T19:49:24;23.70;70.20
15409;DHT22;7803;48.130;13.788;2024-01-07T19:52:29;23.70;70.10
15409;DHT22;7803;48.130;13.788;2024-01-07T19:55:33;23.70;70.20
15409;DHT22;7803;48.130;13.788;2024-01-07T19:58:34;23.70;70.30
15409;DHT22;7803;48.130;13.788;2024-01-07T20:01:37;23.60;70.20
15409;DHT22;7803;48.130;13.788;2024-01-07T20:04:39;23.60;70.10
15409;DHT22;7803;48.130;13.788;2024-01-07T20:07:43;23.70;70.10
15409;DHT22;7803;48.130;13.788;2024-01-07T20:10:45;23.70;70.00
15409;DHT22;7803;48.130;13.788;2024-01-07T20:13:49;23.70;70.00
15409;DHT22;7803;48.130;13.788;2024-01-07T20:16:51;23.70;70.00
15409;DHT22;7803;48.130;13.788;2024-01-07T20:19:54;23.70;70.00
15409;DHT22;7803;48.130;13.788;2024-01-07T20:22:58;23.70;69.90
15409;DHT22;7803;48.130;13.788;2024-01-07T20:26:00;23.70;69.80
15409;DHT22;7803;48.130;13.788;2024-01-07T20:29:02;23.70;69.80
15409;DHT22;7803;48.130;13.788;2024-01-07T20:32:08;23.70;69.80
15409;DHT22;7803;48.130;13.788;2024-01-07T20:35:10;23.70;69.80
15409;DHT22;7803;48.130;13.788;2024-01-07T20:38:14;23.70;69.90
15409;DHT22;7803;48.130;13.788;2024-01-07T20:41:16;23.70;69.80
15409;DHT22;7803;48.130;13.788;2024-01-07T20:44:20;23.70;69.80
15409;DHT22;7803;48.130;13.788;2024-01-07T20:47:22;23.70;69.80
15409;DHT22;7803;48.130;13.788;2024-01-07T20:50:24;23.70;69.80
15409;DHT22;7803;48.130;13.788;2024-01-07T20:53:28;23.70;69.70
15409;DHT22;7803;48.130;13.788;2024-01-07T20:56:30;23.70;69.70